Time;durP1;ratioP1;P1;durP2;ratioP2;P2;SDS_P1;SDS_P2;PMS_P1;PMS_P2;Temp;Humidity;BMP_temperature;BMP_pressure;BME280_temperature;BME280_humidity;BME280_pressure;Samples;Min_cycle;Max_cycle;Signal;HPM_P1;HPM_P2
2022/07/05 00:01:59;;;;;;;17.17;8.75;;;22.60;99.90;;;;;;5019245;28;20324;-72
2022/07/05 00:04:50;;;;;;;13.57;8.48;;;22.60;99.90;;;;;;5003675;28;20251;-73
2022/07/05 00:07:39;;;;;;;12.27;8.88;;;22.50;99.90;;;;;;5021069;28;20233;-72
2022/07/05 00:10:28;;;;;;;16.45;8.93;;;22.50;99.90;;;;;;5025958;28;20277;-73
2022/07/05 00:13:17;;;;;;;10.20;7.80;;;22.40;99.90;;;;;;5017217;28;20222;-72
2022/07/05 00:16:06;;;;;;;12.70;8.10;;;22.40;99.90;;;;;;5014780;28;20225;-72
2022/07/05 00:18:54;;;;;;;11.35;7.50;;;22.30;99.90;;;;;;5021757;28;20220;-73
2022/07/05 00:21:44;;;;;;;7.57;6.65;;;22.40;99.90;;;;;;5015235;28;20225;-72
2022/07/05 00:24:33;;;;;;;6.55;5.95;;;22.30;99.90;;;;;;5017237;28;20572;-72
2022/07/05 00:27:21;;;;;;;9.98;5.80;;;22.30;99.90;;;;;;4998083;28;20222;-72
2022/07/05 00:30:11;;;;;;;6.65;5.70;;;22.20;99.90;;;;;;5018518;28;20324;-73
2022/07/05 00:33:00;;;;;;;9.32;5.90;;;22.20;99.90;;;;;;5019490;28;20236;-72
2022/07/05 00:35:49;;;;;;;7.97;5.55;;;22.20;99.90;;;;;;5005092;28;20223;-72
2022/07/05 00:38:39;;;;;;;6.18;5.25;;;22.30;99.90;;;;;;5020011;28;20224;-72
2022/07/05 00:41:27;;;;;;;7.35;4.75;;;22.20;99.90;;;;;;5012930;28;20222;-72
2022/07/05 00:44:16;;;;;;;5.35;4.88;;;22.20;99.90;;;;;;5019819;28;20750;-73
2022/07/05 00:47:06;;;;;;;5.80;4.65;;;22.20;99.90;;;;;;5020629;28;20232;-74
2022/07/05 00:49:56;;;;;;;5.80;4.90;;;22.10;99.90;;;;;;5016830;28;20308;-73
2022/07/05 00:52:44;;;;;;;7.68;5.43;;;22.10;99.90;;;;;;5005451;28;20229;-71
2022/07/05 00:55:35;;;;;;;5.22;4.72;;;22.00;99.90;;;;;;5004997;28;20236;-73
2022/07/05 00:58:23;;;;;;;7.68;5.65;;;21.90;99.90;;;;;;5019949;28;20225;-73
2022/07/05 01:01:12;;;;;;;7.20;4.93;;;22.00;99.90;;;;;;5018910;28;20247;-72
2022/07/05 01:04:01;;;;;;;7.60;5.25;;;22.10;99.90;;;;;;5006349;28;20287;-73
2022/07/05 01:06:56;;;;;;;10.02;5.88;;;22.00;99.90;;;;;;5004641;28;20229;-73
2022/07/05 01:09:44;;;;;;;7.28;5.43;;;22.00;99.90;;;;;;5020062;28;20226;-73
2022/07/05 01:12:34;;;;;;;11.13;5.85;;;21.90;99.90;;;;;;5024380;28;20225;-73
2022/07/05 01:15:24;;;;;;;9.35;6.18;;;21.80;99.90;;;;;;5007018;28;20230;-72
2022/07/05 01:18:13;;;;;;;7.22;6.15;;;21.90;99.90;;;;;;5013443;28;20226;-74
2022/07/05 01:21:03;;;;;;;8.88;6.25;;;21.70;99.90;;;;;;5017626;28;20244;-74
2022/07/05 01:23:53;;;;;;;6.85;6.25;;;21.70;99.90;;;;;;5028257;28;20219;-73
2022/07/05 01:26:44;;;;;;;6.80;6.20;;;21.60;99.90;;;;;;5020372;28;20222;-74
2022/07/05 01:29:32;;;;;;;9.20;6.47;;;21.30;99.90;;;;;;5001250;28;20233;-69
2022/07/05 01:32:21;;;;;;;8.13;6.70;;;21.40;99.90;;;;;;5018202;28;20241;-73
2022/07/05 01:35:11;;;;;;;7.45;6.57;;;21.40;99.90;;;;;;5031232;28;20684;-73
2022/07/05 01:37:59;;;;;;;9.45;6.65;;;21.30;99.90;;;;;;5018055;28;20232;-73
2022/07/05 01:40:51;;;;;;;7.10;6.43;;;21.10;99.90;;;;;;5009380;28;20739;-72
2022/07/05 01:43:40;;;;;;;6.80;6.10;;;21.00;99.90;;;;;;5013896;28;20225;-72
2022/07/05 01:46:32;;;;;;;7.20;6.50;;;21.00;99.90;;;;;;5008230;28;20675;-72
2022/07/05 01:49:26;;;;;;;8.48;6.95;;;20.90;99.90;;;;;;5021980;28;20236;-73
2022/07/05 01:52:16;;;;;;;7.80;6.50;;;20.80;99.90;;;;;;5005639;28;20226;-72
2022/07/05 01:55:06;;;;;;;7.45;6.65;;;20.80;99.90;;;;;;5010369;28;20291;-72
2022/07/05 01:57:56;;;;;;;7.00;6.07;;;20.60;99.90;;;;;;5015964;28;20735;-72
2022/07/05 02:00:47;;;;;;;6.70;6.10;;;20.60;99.90;;;;;;5006248;28;20577;-72
2022/07/05 02:03:36;;;;;;;7.22;6.53;;;20.50;99.90;;;;;;5017720;28;20261;-72
2022/07/05 02:06:46;;;;;;;7.95;6.35;;;20.60;99.90;;;;;;5009800;28;20221;-72
2022/07/05 02:09:34;;;;;;;8.88;6.40;;;20.50;99.90;;;;;;5009103;28;20221;-72
2022/07/05 02:12:23;;;;;;;7.68;6.75;;;20.50;99.90;;;;;;5025000;28;20230;-74
2022/07/05 02:15:13;;;;;;;7.25;6.40;;;20.50;99.90;;;;;;5029781;28;20292;-73
2022/07/05 02:18:03;;;;;;;7.07;6.40;;;20.30;99.90;;;;;;5019773;28;20766;-71
2022/07/05 02:20:53;;;;;;;7.28;6.68;;;20.30;99.90;;;;;;5025172;28;20311;-72
2022/07/05 02:23:42;;;;;;;6.97;6.25;;;20.30;99.90;;;;;;5006527;28;20723;-73
2022/07/05 02:26:31;;;;;;;6.97;6.28;;;20.20;99.90;;;;;;5021349;28;20233;-71
2022/07/05 02:29:20;;;;;;;6.50;5.90;;;20.10;99.90;;;;;;5020993;28;20229;-72
2022/07/05 02:32:10;;;;;;;7.20;6.40;;;20.00;99.90;;;;;;5016118;28;20222;-72
2022/07/05 02:34:59;;;;;;;8.55;6.47;;;20.00;99.90;;;;;;5016156;28;20328;-71
2022/07/05 02:37:48;;;;;;;7.10;5.90;;;20.00;99.90;;;;;;5010933;28;20231;-73
2022/07/05 02:40:37;;;;;;;9.38;6.65;;;20.00;99.90;;;;;;5009753;28;20228;-72
2022/07/05 02:43:27;;;;;;;7.07;6.47;;;19.90;99.90;;;;;;5007217;28;20253;-71
2022/07/05 02:46:15;;;;;;;6.95;6.25;;;19.70;99.90;;;;;;5013925;28;20664;-71
2022/07/05 02:49:06;;;;;;;7.63;6.65;;;19.80;99.90;;;;;;5016469;28;20411;-72
2022/07/05 02:51:56;;;;;;;7.10;6.40;;;19.80;99.90;;;;;;5036045;28;20304;-72
2022/07/05 02:54:45;;;;;;;8.13;6.40;;;19.80;99.90;;;;;;5008068;28;20241;-72
2022/07/05 02:57:42;;;;;;;7.05;6.35;;;19.70;99.90;;;;;;5007955;28;20252;-72
2022/07/05 03:00:33;;;;;;;8.30;6.18;;;19.80;99.90;;;;;;5006112;28;20217;-73
2022/07/05 03:03:22;;;;;;;7.10;6.50;;;19.90;99.90;;;;;;5003547;28;20361;-73
2022/07/05 03:06:14;;;;;;;7.38;6.68;;;19.80;99.90;;;;;;5002723;28;20218;-72
2022/07/05 03:09:03;;;;;;;8.88;6.40;;;19.80;99.90;;;;;;5017213;28;20671;-72
2022/07/05 03:11:51;;;;;;;8.38;6.05;;;19.90;99.90;;;;;;5020916;28;20604;-73
2022/07/05 03:14:40;;;;;;;6.88;5.93;;;20.00;99.90;;;;;;5014842;28;20793;-72
2022/07/05 03:17:29;;;;;;;7.05;5.88;;;19.90;99.90;;;;;;5020958;28;20228;-72
2022/07/05 03:20:19;;;;;;;6.70;5.88;;;20.00;99.90;;;;;;5017676;28;20327;-72
2022/07/05 03:23:10;;;;;;;6.65;5.88;;;20.00;99.90;;;;;;5006621;28;20229;-72
2022/07/05 03:26:04;;;;;;;6.47;5.97;;;20.00;99.90;;;;;;5008411;28;20244;-72
2022/07/05 03:28:53;;;;;;;7.35;5.95;;;20.10;99.90;;;;;;5009519;28;20275;-72
2022/07/05 03:31:42;;;;;;;7.85;5.88;;;20.00;99.90;;;;;;5016455;28;20761;-72
2022/07/05 03:34:30;;;;;;;6.30;5.47;;;19.90;99.90;;;;;;5015803;28;20866;-72
2022/07/05 03:37:27;;;;;;;9.32;5.45;;;19.80;99.90;;;;;;5018413;28;20240;-72
2022/07/05 03:40:17;;;;;;;6.85;5.68;;;19.80;99.90;;;;;;5005902;28;20668;-72
2022/07/05 03:43:06;;;;;;;7.95;6.20;;;19.90;99.90;;;;;;5017159;28;20649;-72
2022/07/05 03:45:57;;;;;;;7.30;5.75;;;19.90;99.90;;;;;;5008381;28;20225;-72
2022/07/05 03:48:49;;;;;;;7.25;5.43;;;19.90;99.90;;;;;;4999681;28;20565;-72
2022/07/05 03:51:39;;;;;;;6.28;5.43;;;19.90;99.90;;;;;;5018841;28;20238;-72
2022/07/05 03:54:27;;;;;;;9.27;6.47;;;19.90;99.90;;;;;;5008064;28;20549;-73
2022/07/05 03:57:17;;;;;;;7.78;5.18;;;19.80;99.90;;;;;;5021523;28;20603;-73
2022/07/05 04:00:08;;;;;;;6.80;6.10;;;19.80;99.90;;;;;;5020611;28;20312;-72
2022/07/05 04:03:09;;;;;;;6.15;5.47;;;19.80;99.90;;;;;;5004769;28;20303;-73
2022/07/05 04:05:58;;;;;;;7.95;5.45;;;19.70;99.90;;;;;;5014381;28;20233;-71
2022/07/05 04:08:48;;;;;;;6.45;5.65;;;19.70;99.90;;;;;;5013239;28;20236;-73
2022/07/05 04:11:37;;;;;;;6.50;5.90;;;19.80;99.90;;;;;;5021448;28;20213;-72
2022/07/05 04:14:27;;;;;;;5.97;5.43;;;19.70;99.90;;;;;;5007136;28;20230;-70
2022/07/05 04:17:15;;;;;;;6.03;5.43;;;19.70;99.90;;;;;;5005690;28;20715;-70
2022/07/05 04:20:05;;;;;;;6.80;5.13;;;19.80;99.90;;;;;;5019063;28;20231;-72
2022/07/05 04:22:57;;;;;;;6.82;5.40;;;19.80;99.90;;;;;;5003293;28;20320;-73
2022/07/05 04:25:47;;;;;;;5.45;4.85;;;19.80;99.90;;;;;;5025561;28;20225;-73
2022/07/05 04:29:02;;;;;;;9.48;5.10;;;19.90;99.90;;;;;;5022067;28;20217;-74
2022/07/05 04:31:56;;;;;;;8.30;5.15;;;19.90;99.90;;;;;;5007395;28;20243;-73
2022/07/05 04:34:45;;;;;;;6.25;5.47;;;20.00;99.90;;;;;;5009459;28;20545;-74
2022/07/05 04:37:34;;;;;;;5.63;5.07;;;20.10;99.90;;;;;;4999923;28;20267;-74
2022/07/05 04:40:23;;;;;;;5.55;5.00;;;20.10;99.90;;;;;;5014580;28;20222;-74
2022/07/05 04:43:15;;;;;;;5.38;4.88;;;20.10;99.90;;;;;;5003335;28;20565;-74
2022/07/05 04:46:09;;;;;;;5.28;4.53;;;20.20;99.90;;;;;;5015896;28;20241;-74
2022/07/05 04:48:59;;;;;;;5.70;4.63;;;20.30;99.90;;;;;;5009437;28;20230;-73
2022/07/05 04:51:47;;;;;;;7.07;4.70;;;20.40;99.90;;;;;;5018644;28;20244;-74
2022/07/05 04:54:36;;;;;;;6.18;4.50;;;20.40;99.90;;;;;;5017524;28;20225;-74
2022/07/05 04:57:28;;;;;;;5.65;4.07;;;20.50;99.90;;;;;;5002607;28;20225;-74
2022/07/05 05:00:17;;;;;;;7.15;3.90;;;20.40;99.90;;;;;;5014902;28;20304;-74
2022/07/05 05:03:06;;;;;;;5.40;4.15;;;20.30;99.90;;;;;;5022142;28;20236;-74
2022/07/05 05:05:56;;;;;;;5.15;4.25;;;20.50;99.90;;;;;;5018041;28;20222;-74
2022/07/05 05:08:44;;;;;;;5.10;4.15;;;20.50;99.90;;;;;;5001971;28;20236;-74
2022/07/05 05:11:37;;;;;;;6.15;4.18;;;20.40;99.90;;;;;;5020319;28;20232;-72
2022/07/05 05:14:29;;;;;;;7.82;4.70;;;20.30;99.90;;;;;;5018496;28;20280;-72
2022/07/05 05:17:18;;;;;;;7.60;4.22;;;20.30;99.90;;;;;;5020634;28;20228;-72
2022/07/05 05:20:10;;;;;;;5.18;4.50;;;20.40;99.90;;;;;;5009495;28;20711;-72
2022/07/05 05:23:00;;;;;;;6.10;3.88;;;20.40;99.90;;;;;;5014500;28;20222;-72
2022/07/05 05:25:49;;;;;;;5.57;4.22;;;20.60;99.90;;;;;;5019347;28;20244;-72
2022/07/05 05:28:38;;;;;;;5.63;4.28;;;20.70;99.90;;;;;;5009344;28;20695;-72
2022/07/05 05:31:27;;;;;;;5.75;4.00;;;20.80;99.90;;;;;;5014866;28;20226;-74
2022/07/05 05:34:21;;;;;;;4.65;4.13;;;20.90;99.90;;;;;;5019713;28;20305;-73
2022/07/05 05:37:10;;;;;;;4.70;4.28;;;20.60;99.90;;;;;;5019744;28;20236;-73
2022/07/05 05:40:00;;;;;;;7.45;4.50;;;20.70;99.90;;;;;;5017640;28;20233;-71
2022/07/05 05:42:50;;;;;;;6.95;4.43;;;20.70;99.90;;;;;;5003569;28;20233;-73
2022/07/05 05:45:38;;;;;;;7.50;5.25;;;20.80;99.90;;;;;;5002488;28;20252;-73
2022/07/05 05:48:31;;;;;;;4.78;4.35;;;20.70;99.90;;;;;;5001521;28;20230;-74
2022/07/05 05:51:20;;;;;;;5.65;4.53;;;20.90;99.90;;;;;;5016472;28;20364;-73
2022/07/05 05:54:08;;;;;;;5.28;4.50;;;21.00;99.90;;;;;;5013555;28;20223;-72
2022/07/05 05:56:58;;;;;;;8.25;4.57;;;20.90;99.90;;;;;;5004381;28;20287;-72
2022/07/05 05:59:47;;;;;;;9.52;4.72;;;20.90;99.90;;;;;;5013192;28;20256;-71
2022/07/05 06:02:36;;;;;;;9.73;4.72;;;21.00;99.90;;;;;;5019391;28;20809;-71
2022/07/05 06:05:25;;;;;;;8.00;4.63;;;21.10;99.90;;;;;;5008601;28;20221;-71
2022/07/05 06:08:14;;;;;;;10.05;4.35;;;21.10;99.90;;;;;;5014561;28;20232;-71
2022/07/05 06:11:04;;;;;;;6.30;4.65;;;21.20;99.90;;;;;;5004165;28;20233;-70
2022/07/05 06:13:53;;;;;;;4.80;4.28;;;21.50;99.90;;;;;;5007010;28;20570;-71
2022/07/05 06:16:42;;;;;;;8.30;4.07;;;21.60;99.90;;;;;;5019349;28;20616;-72
2022/07/05 06:19:31;;;;;;;7.20;4.13;;;21.60;99.90;;;;;;5024341;28;20229;-72
2022/07/05 06:22:19;;;;;;;7.72;4.22;;;21.80;99.90;;;;;;5031673;28;20923;-72
2022/07/05 06:25:09;;;;;;;6.57;4.50;;;21.70;99.90;;;;;;5019687;28;20226;-73
2022/07/05 06:28:12;;;;;;;4.80;4.22;;;22.00;99.90;;;;;;5006091;28;20226;-74
2022/07/05 06:31:02;;;;;;;7.25;4.05;;;22.00;99.90;;;;;;5025213;28;20225;-73
2022/07/05 06:33:51;;;;;;;7.25;4.03;;;22.20;99.90;;;;;;5004974;28;20210;-73
2022/07/05 06:36:40;;;;;;;3.95;3.65;;;22.00;99.90;;;;;;5024320;28;20798;-79
2022/07/05 06:39:28;;;;;;;4.38;3.78;;;22.20;99.90;;;;;;5023073;28;20323;-75
2022/07/05 06:42:17;;;;;;;6.53;4.03;;;22.30;99.90;;;;;;5020602;28;20684;-74
2022/07/05 06:45:09;;;;;;;7.05;4.03;;;22.40;99.90;;;;;;5023947;28;20234;-75
2022/07/05 06:48:00;;;;;;;11.77;4.20;;;22.40;99.90;;;;;;5020997;28;20237;-73
2022/07/05 06:50:48;;;;;;;6.57;4.30;;;22.70;99.90;;;;;;5016602;28;20230;-73
2022/07/05 06:53:37;;;;;;;4.88;3.60;;;23.00;99.90;;;;;;5018900;28;20554;-74
2022/07/05 06:56:26;;;;;;;5.93;3.90;;;23.40;99.90;;;;;;5001153;28;20218;-73
2022/07/05 06:59:14;;;;;;;8.15;3.83;;;23.50;99.90;;;;;;5014789;28;20225;-74
2022/07/05 07:02:23;;;;;;;4.90;3.78;;;23.20;99.90;;;;;;5008309;28;20748;-74
2022/07/05 07:05:13;;;;;;;7.07;3.88;;;23.20;99.90;;;;;;5018302;28;20222;-74
2022/07/05 07:11:10;;;;;;;5.97;3.88;;;23.50;99.90;;;;;;5006597;28;20233;-73
2022/07/05 07:13:59;;;;;;;5.07;3.47;;;24.00;99.90;;;;;;5026443;28;20229;-73
2022/07/05 07:16:47;;;;;;;8.02;3.85;;;24.50;99.90;;;;;;5019725;28;20221;-73
2022/07/05 07:19:36;;;;;;;6.20;3.58;;;24.40;99.90;;;;;;5023603;28;20221;-74
2022/07/05 07:22:29;;;;;;;7.05;4.00;;;24.60;99.90;;;;;;5022171;28;20225;-71
2022/07/05 07:25:20;;;;;;;4.65;3.92;;;24.50;99.90;;;;;;5022155;28;20224;-73
2022/07/05 07:28:08;;;;;;;5.95;3.92;;;24.60;99.90;;;;;;5005656;28;20316;-73
2022/07/05 07:30:57;;;;;;;9.45;4.00;;;24.90;99.90;;;;;;5006439;28;20223;-70
2022/07/05 07:33:46;;;;;;;8.07;3.97;;;25.20;99.90;;;;;;5017966;28;20228;-71
2022/07/05 07:36:34;;;;;;;8.88;4.40;;;25.60;99.90;;;;;;5007753;28;20210;-70
2022/07/05 07:39:26;;;;;;;6.15;4.22;;;25.80;99.90;;;;;;5017957;28;20213;-69
2022/07/05 07:42:13;;;;;;;4.25;3.85;;;26.00;99.90;;;;;;5007057;28;20345;-72
2022/07/05 07:45:03;;;;;;;5.30;4.22;;;26.20;99.90;;;;;;5019447;28;20242;-71
2022/07/05 07:47:52;;;;;;;4.32;3.40;;;26.60;99.90;;;;;;5023858;28;20232;-72
2022/07/05 07:50:41;;;;;;;5.10;3.80;;;26.80;99.90;;;;;;5023850;28;20237;-74
2022/07/05 07:53:30;;;;;;;6.45;3.90;;;27.20;99.90;;;;;;5016943;28;20316;-72
2022/07/05 07:56:20;;;;;;;6.15;3.90;;;27.50;99.90;;;;;;5020346;28;20232;-74
2022/07/05 07:59:09;;;;;;;7.32;3.90;;;27.70;99.90;;;;;;5018452;28;20228;-72
2022/07/05 08:01:57;;;;;;;5.88;4.10;;;28.00;99.90;;;;;;5015648;28;20245;-72
2022/07/05 08:04:46;;;;;;;6.65;4.20;;;28.20;99.90;;;;;;5008439;28;20222;-72
2022/07/05 08:07:35;;;;;;;9.18;4.43;;;27.90;99.90;;;;;;5003716;28;20232;-74
2022/07/05 08:10:24;;;;;;;9.23;4.25;;;28.50;99.90;;;;;;5023700;28;20221;-74
2022/07/05 08:13:18;;;;;;;5.78;4.30;;;29.10;98.60;;;;;;5002343;28;20813;-73
2022/07/05 08:16:06;;;;;;;5.78;3.97;;;29.20;98.90;;;;;;5016002;28;20246;-74
2022/07/05 08:22:01;;;;;;;4.50;4.10;;;29.60;95.00;;;;;;5019688;28;20400;-74
2022/07/05 08:24:50;;;;;;;5.13;3.75;;;30.00;94.10;;;;;;5019585;28;20544;-73
2022/07/05 08:27:39;;;;;;;6.95;4.22;;;30.00;94.70;;;;;;5018854;28;20773;-73
2022/07/05 08:30:29;;;;;;;7.95;3.95;;;30.10;93.00;;;;;;5018992;28;20225;-73
2022/07/05 08:33:18;;;;;;;6.13;3.88;;;30.20;90.80;;;;;;5010399;28;20294;-73
2022/07/05 08:36:07;;;;;;;9.93;4.00;;;30.20;92.10;;;;;;5017232;28;20216;-73
2022/07/05 08:38:56;;;;;;;9.25;4.10;;;30.30;91.40;;;;;;5023433;28;20706;-74
2022/07/05 08:41:49;;;;;;;6.07;3.80;;;30.20;90.40;;;;;;5016727;28;20217;-74
2022/07/05 08:44:40;;;;;;;10.90;4.47;;;30.90;90.20;;;;;;5017768;28;20493;-72
2022/07/05 08:47:31;;;;;;;8.48;3.70;;;30.10;89.80;;;;;;5022067;28;20253;-72
2022/07/05 08:50:21;;;;;;;6.72;3.88;;;30.00;91.60;;;;;;5013147;28;20251;-71
2022/07/05 08:53:10;;;;;;;6.63;4.20;;;30.20;89.00;;;;;;5020196;28;20231;-73
2022/07/05 08:56:00;;;;;;;11.73;4.00;;;30.30;90.10;;;;;;5008243;28;20323;-72
2022/07/05 08:58:49;;;;;;;6.80;3.75;;;30.30;87.20;;;;;;5018159;28;20711;-71
2022/07/05 09:01:40;;;;;;;5.55;4.10;;;30.50;89.30;;;;;;5021448;28;20217;-72
2022/07/05 09:04:37;;;;;;;4.80;3.58;;;31.20;83.90;;;;;;5021491;28;20699;-73
2022/07/05 09:07:30;;;;;;;8.25;4.30;;;31.50;81.60;;;;;;5019685;28;20213;-74
2022/07/05 09:10:20;;;;;;;5.85;3.70;;;31.50;79.70;;;;;;5023094;28;20231;-73
2022/07/05 09:13:09;;;;;;;9.10;4.10;;;31.30;81.80;;;;;;5014611;28;20232;-72
2022/07/05 09:15:58;;;;;;;7.18;3.75;;;30.60;82.50;;;;;;5021094;28;20315;-71
2022/07/05 09:18:48;;;;;;;6.10;3.60;;;29.80;83.50;;;;;;5021758;28;20698;-73
2022/07/05 09:21:38;;;;;;;5.95;3.72;;;30.20;87.00;;;;;;5011405;28;20224;-73
2022/07/05 09:24:27;;;;;;;4.05;3.60;;;31.50;80.90;;;;;;5023362;28;20374;-71
2022/07/05 09:27:16;;;;;;;4.85;3.80;;;32.80;75.60;;;;;;5029014;28;20220;-73
2022/07/05 09:30:06;;;;;;;5.20;3.60;;;32.40;76.90;;;;;;5018844;28;20221;-73
2022/07/05 09:33:05;;;;;;;4.50;3.60;;;31.60;78.00;;;;;;5018771;28;20229;-73
2022/07/05 09:35:57;;;;;;;6.03;3.97;;;31.20;77.60;;;;;;5021530;28;20598;-73
2022/07/05 09:38:52;;;;;;;9.68;3.67;;;32.00;77.50;;;;;;5022245;28;20275;-72
2022/07/05 09:41:40;;;;;;;6.55;3.92;;;31.60;76.40;;;;;;5021904;28;20227;-72
2022/07/05 09:44:29;;;;;;;9.02;3.70;;;31.20;78.10;;;;;;5004109;28;20711;-74
2022/07/05 09:47:19;;;;;;;9.95;3.67;;;31.10;81.30;;;;;;5007144;28;20770;-73
2022/07/05 09:50:09;;;;;;;6.90;3.80;;;31.60;78.90;;;;;;5021085;28;20225;-72
2022/07/05 09:52:58;;;;;;;7.00;3.70;;;31.30;75.40;;;;;;5020875;28;20323;-72
2022/07/05 09:56:04;;;;;;;5.80;3.33;;;31.40;77.40;;;;;;5020255;28;20220;-73
2022/07/05 09:58:52;;;;;;;5.00;3.65;;;31.10;77.70;;;;;;5020927;28;20217;-73
2022/07/05 10:01:41;;;;;;;8.07;3.60;;;30.60;78.90;;;;;;5023666;28;20244;-73
2022/07/05 10:04:30;;;;;;;7.03;3.97;;;30.00;78.40;;;;;;5026177;28;20226;-72
2022/07/05 10:07:31;;;;;;;7.32;3.70;;;29.60;82.60;;;;;;5022873;28;20221;-73
2022/07/05 10:10:21;;;;;;;4.13;3.72;;;29.30;83.30;;;;;;5029184;28;20224;-72
2022/07/05 10:13:11;;;;;;;10.32;3.80;;;29.20;83.50;;;;;;5010547;28;20291;-73
2022/07/05 10:16:00;;;;;;;9.48;3.67;;;28.80;85.70;;;;;;5011026;28;20228;-73
2022/07/05 10:18:52;;;;;;;4.55;4.00;;;28.80;87.10;;;;;;5010321;28;20655;-72
2022/07/05 10:21:46;;;;;;;6.85;3.88;;;28.50;88.00;;;;;;5006277;28;20228;-71
2022/07/05 10:24:56;;;;;;;8.07;3.80;;;28.20;88.20;;;;;;5023626;28;20218;-71
2022/07/05 10:27:45;;;;;;;6.70;4.53;;;28.20;88.10;;;;;;5025424;28;20220;-71
2022/07/05 10:30:35;;;;;;;10.10;4.18;;;28.20;88.80;;;;;;5027184;28;20228;-71
2022/07/05 10:33:26;;;;;;;3.97;3.55;;;28.10;88.40;;;;;;5012435;28;20225;-71
2022/07/05 10:36:15;;;;;;;8.13;4.25;;;28.00;87.70;;;;;;5024012;28;20229;-71
2022/07/05 10:39:04;;;;;;;5.57;4.38;;;27.80;87.40;;;;;;5028922;28;20673;-72
2022/07/05 10:41:53;;;;;;;5.05;3.97;;;27.90;88.30;;;;;;5025111;28;20743;-72
2022/07/05 10:44:42;;;;;;;4.15;3.72;;;28.00;88.00;;;;;;5020058;28;20752;-72
2022/07/05 10:47:32;;;;;;;6.63;3.58;;;28.10;90.00;;;;;;5025409;28;20217;-72
2022/07/05 10:50:23;;;;;;;7.32;3.40;;;28.20;91.30;;;;;;5021404;28;20230;-73
2022/07/05 10:53:12;;;;;;;4.03;3.60;;;28.30;89.90;;;;;;5015435;28;20212;-71
2022/07/05 10:56:12;;;;;;;5.85;3.58;;;28.40;90.80;;;;;;5019002;28;20233;-73
2022/07/05 10:59:11;;;;;;;7.10;3.60;;;27.80;88.20;;;;;;5015540;28;20226;-72
2022/07/05 11:02:13;;;;;;;5.45;3.40;;;28.20;89.40;;;;;;5019659;28;20231;-71
2022/07/05 11:05:04;;;;;;;11.45;3.97;;;28.50;91.40;;;;;;5034518;28;20580;-74
2022/07/05 11:07:59;;;;;;;7.22;4.03;;;28.80;90.50;;;;;;5011960;28;20240;-73
2022/07/05 11:11:12;;;;;;;5.68;3.75;;;28.90;89.00;;;;;;5019396;28;20225;-74
2022/07/05 11:14:01;;;;;;;6.18;3.72;;;28.80;87.30;;;;;;5017757;28;20251;-72
2022/07/05 11:17:32;;;;;;;7.93;3.60;;;28.80;87.30;;;;;;5017510;28;20603;-73
2022/07/05 11:20:42;;;;;;;5.18;3.35;;;28.80;87.70;;;;;;5018820;28;21107;-72
2022/07/05 11:23:30;;;;;;;5.88;3.75;;;28.60;87.60;;;;;;5019490;28;20222;-72
2022/07/05 11:26:19;;;;;;;5.32;3.38;;;28.70;87.70;;;;;;5024618;28;20232;-74
2022/07/05 11:29:41;;;;;;;7.00;3.40;;;28.90;88.10;;;;;;5009752;28;20292;-73
2022/07/05 11:32:37;;;;;;;5.72;3.42;;;29.60;86.10;;;;;;5015437;28;20228;-74
2022/07/05 11:35:33;;;;;;;5.18;3.10;;;30.50;83.30;;;;;;5018329;28;20228;-75
2022/07/05 11:38:24;;;;;;;4.05;2.97;;;30.60;83.50;;;;;;5017671;28;20669;-75
2022/07/05 11:41:31;;;;;;;7.38;3.15;;;30.60;82.50;;;;;;5006135;28;20229;-74
2022/07/05 11:44:20;;;;;;;4.93;3.10;;;30.60;81.10;;;;;;5012018;28;20218;-75
2022/07/05 11:47:32;;;;;;;4.95;2.85;;;29.50;81.90;;;;;;5023275;28;20233;-76
2022/07/05 11:50:34;;;;;;;4.47;3.40;;;29.40;85.40;;;;;;5015507;28;20239;-73
2022/07/05 11:53:32;;;;;;;5.00;2.95;;;29.00;83.10;;;;;;5012935;28;20568;-74
2022/07/05 11:56:41;;;;;;;6.05;3.10;;;28.60;85.50;;;;;;5008932;28;20232;-73
2022/07/05 11:59:30;;;;;;;3.30;3.00;;;28.70;86.30;;;;;;5007051;28;20216;-74
2022/07/05 12:02:19;;;;;;;5.15;3.75;;;28.30;84.80;;;;;;5012731;28;20310;-73
2022/07/05 12:05:08;;;;;;;7.32;3.33;;;28.30;86.70;;;;;;5019836;28;20213;-73
2022/07/05 12:07:56;;;;;;;6.00;2.90;;;28.10;85.60;;;;;;5007786;28;20236;-73
2022/07/05 12:14:04;;;;;;;4.72;3.03;;;27.80;87.60;;;;;;5018749;28;20308;-72
2022/07/05 12:17:11;;;;;;;3.17;2.88;;;27.80;86.60;;;;;;5018639;28;20236;-71
2022/07/05 12:20:00;;;;;;;4.57;3.28;;;27.50;87.80;;;;;;5019482;28;20225;-71
2022/07/05 12:22:52;;;;;;;4.60;2.95;;;27.30;88.30;;;;;;5010560;28;20221;-75
2022/07/05 12:25:41;;;;;;;9.48;2.85;;;27.30;90.00;;;;;;5017229;28;20716;-70
2022/07/05 12:28:31;;;;;;;3.85;2.80;;;27.40;89.70;;;;;;5017054;28;20527;-74
2022/07/05 12:31:22;;;;;;;4.13;2.80;;;27.30;88.40;;;;;;5017854;28;20240;-72
2022/07/05 12:34:21;;;;;;;6.22;2.90;;;27.40;90.10;;;;;;5009233;28;20288;-71
2022/07/05 12:37:10;;;;;;;6.10;3.20;;;27.20;89.00;;;;;;5022022;28;20269;-73
2022/07/05 12:40:05;;;;;;;5.03;3.15;;;27.20;90.20;;;;;;5021721;28;20593;-73
2022/07/05 12:43:09;;;;;;;4.38;3.00;;;27.40;91.30;;;;;;5012912;28;20767;-72
2022/07/05 12:46:03;;;;;;;5.80;2.90;;;27.30;90.20;;;;;;5017739;28;20225;-76
2022/07/05 12:48:54;;;;;;;6.00;2.80;;;27.10;90.50;;;;;;5010195;28;20214;-70
2022/07/05 12:51:45;;;;;;;5.32;3.10;;;27.10;90.90;;;;;;5017436;28;20330;-70
2022/07/05 12:58:03;;;;;;;3.70;2.70;;;27.00;91.10;;;;;;4946592;28;20371;-71
2022/07/05 13:00:51;;;;;;;7.07;3.42;;;26.70;92.00;;;;;;4940744;28;20231;-71
2022/07/05 13:04:05;;;;;;;4.90;3.00;;;26.60;92.30;;;;;;5010491;28;20225;-70
2022/07/05 13:06:56;;;;;;;9.45;2.67;;;26.60;93.80;;;;;;5020352;28;20259;-68
2022/07/05 13:09:44;;;;;;;8.98;2.83;;;26.40;92.60;;;;;;5021790;28;20225;-70
2022/07/05 13:12:33;;;;;;;6.97;3.00;;;26.20;92.90;;;;;;5022317;28;20564;-69
2022/07/05 13:15:22;;;;;;;4.97;2.70;;;26.10;92.90;;;;;;5017569;28;20264;-68
2022/07/05 13:18:11;;;;;;;6.45;2.90;;;26.10;93.40;;;;;;5014621;28;20229;-68
2022/07/05 13:21:01;;;;;;;6.32;3.03;;;26.00;93.40;;;;;;5018951;28;21034;-70
2022/07/05 13:23:49;;;;;;;6.25;3.00;;;26.00;93.60;;;;;;5002120;28;20558;-69
2022/07/05 13:26:38;;;;;;;3.50;2.53;;;25.80;93.60;;;;;;5022575;28;20715;-69
2022/07/05 13:29:27;;;;;;;3.38;2.60;;;25.80;94.90;;;;;;5025400;28;20222;-70
2022/07/05 13:32:16;;;;;;;3.35;2.58;;;25.70;94.60;;;;;;5025212;28;20357;-70
2022/07/05 13:35:06;;;;;;;6.50;2.70;;;25.70;95.10;;;;;;5028839;28;20591;-73
2022/07/05 13:37:56;;;;;;;10.98;2.92;;;25.70;95.10;;;;;;5024556;28;20225;-74
2022/07/05 13:40:44;;;;;;;9.55;3.05;;;25.60;96.20;;;;;;5020994;28;20231;-75
2022/07/05 13:43:33;;;;;;;4.53;2.60;;;25.60;96.30;;;;;;5022489;28;20300;-77
2022/07/05 13:46:21;;;;;;;2.40;2.10;;;25.40;96.50;;;;;;5007269;28;20360;-79
2022/07/05 13:49:10;;;;;;;4.30;2.33;;;25.40;95.20;;;;;;5024536;28;20229;-76
2022/07/05 13:52:00;;;;;;;4.85;1.90;;;25.30;94.00;;;;;;5010533;28;20391;-73
2022/07/05 13:54:50;;;;;;;6.18;2.58;;;25.20;94.00;;;;;;5011930;28;20690;-75
2022/07/05 13:57:39;;;;;;;5.65;2.13;;;25.20;94.90;;;;;;5023683;28;20726;-72
2022/07/05 14:00:28;;;;;;;4.45;2.03;;;25.10;93.30;;;;;;5012960;28;20344;-79
2022/07/05 14:03:17;;;;;;;3.35;1.90;;;24.90;93.50;;;;;;5022236;28;20228;-77
2022/07/05 14:06:05;;;;;;;4.97;1.67;;;25.00;94.50;;;;;;5006906;28;20221;-80
2022/07/05 14:08:55;;;;;;;5.30;1.90;;;24.90;92.60;;;;;;5024031;28;20228;-79
2022/07/05 14:11:46;;;;;;;3.45;1.90;;;24.80;93.40;;;;;;5023300;28;20234;-79
2022/07/05 14:14:38;;;;;;;11.88;2.05;;;24.80;95.40;;;;;;5019977;28;20754;-76
2022/07/05 14:17:28;;;;;;;4.35;1.90;;;24.70;99.30;;;;;;5021536;28;20934;-77
2022/07/05 14:20:17;;;;;;;4.60;1.92;;;24.50;99.90;;;;;;5021265;28;20225;-76
2022/07/05 14:23:05;;;;;;;8.25;3.20;;;24.30;99.90;;;;;;5025808;28;20308;-80
2022/07/05 14:25:54;;;;;;;7.97;3.90;;;24.00;99.90;;;;;;5022064;28;20257;-77
2022/07/05 14:28:44;;;;;;;10.43;4.28;;;23.50;99.90;;;;;;5017146;28;20218;-78
2022/07/05 14:31:32;;;;;;;6.30;4.10;;;23.20;99.90;;;;;;5017439;28;20221;-77
2022/07/05 14:34:21;;;;;;;8.05;4.40;;;22.60;99.90;;;;;;5010666;28;20244;-83
2022/07/05 14:37:09;;;;;;;10.73;4.43;;;22.30;99.90;;;;;;5019634;28;20930;-84
2022/07/05 14:39:58;;;;;;;9.23;4.80;;;22.20;99.90;;;;;;5007973;28;20217;-79
2022/07/05 14:42:46;;;;;;;9.00;4.18;;;22.20;99.90;;;;;;5016382;28;20222;-80
2022/07/05 14:45:37;;;;;;;10.55;4.50;;;22.20;99.90;;;;;;5020490;28;20337;-79
2022/07/05 14:48:25;;;;;;;7.22;4.65;;;22.10;99.90;;;;;;5003119;28;21202;-83
2022/07/05 14:51:18;;;;;;;5.57;4.28;;;21.90;99.90;;;;;;5008398;28;20218;-80
2022/07/05 14:54:07;;;;;;;7.75;4.53;;;21.90;99.90;;;;;;5006855;28;20217;-81
2022/07/05 14:56:56;;;;;;;6.68;5.10;;;21.80;99.90;;;;;;5008602;28;20214;-82
2022/07/05 14:59:47;;;;;;;8.82;5.35;;;21.60;99.90;;;;;;5020481;28;20224;-82
2022/07/05 15:02:38;;;;;;;9.23;5.18;;;21.50;99.90;;;;;;5005606;28;20323;-82